createdAt,value
2022-08-30T00:00:49.582Z,14.57
2022-08-30T00:01:49.538Z,14.69
2022-08-30T00:02:49.630Z,14.68
2022-08-30T00:03:49.617Z,14.65
2022-08-30T00:04:49.502Z,14.62
2022-08-30T00:05:49.503Z,14.60
2022-08-30T00:06:49.531Z,14.51
2022-08-30T00:07:49.495Z,14.54
2022-08-30T00:08:49.505Z,14.43
2022-08-30T00:09:49.465Z,14.37
2022-08-30T00:10:49.477Z,14.42
2022-08-30T00:11:49.465Z,14.46
2022-08-30T00:12:49.441Z,14.42
2022-08-30T00:13:49.420Z,14.43
2022-08-30T00:14:49.422Z,14.50
2022-08-30T00:15:49.471Z,14.32
2022-08-30T00:16:49.422Z,14.40
2022-08-30T00:17:49.427Z,14.39
2022-08-30T00:18:49.375Z,14.37
2022-08-30T00:19:49.378Z,14.37
2022-08-30T00:20:49.346Z,14.35
2022-08-30T00:21:49.360Z,14.32
2022-08-30T00:22:49.332Z,14.27
2022-08-30T00:23:49.352Z,14.21
2022-08-30T00:24:49.326Z,14.29
2022-08-30T00:25:49.314Z,14.40
2022-08-30T00:26:49.301Z,14.29
2022-08-30T00:27:49.326Z,14.15
2022-08-30T00:28:49.319Z,14.10
2022-08-30T00:29:49.290Z,14.17
2022-08-30T00:30:49.314Z,14.10
2022-08-30T00:31:49.255Z,14.06
2022-08-30T00:32:49.240Z,14.20
2022-08-30T00:33:49.255Z,14.06
2022-08-30T00:34:49.214Z,14.00
2022-08-30T00:35:49.235Z,13.97
2022-08-30T00:36:49.217Z,14.00
2022-08-30T00:37:49.179Z,13.99
2022-08-30T00:38:49.173Z,14.00
2022-08-30T00:39:49.161Z,13.95
2022-08-30T00:40:49.170Z,13.99
2022-08-30T00:41:49.165Z,14.03
2022-08-30T00:42:50.625Z,14.12
2022-08-30T00:43:49.137Z,14.12
2022-08-30T00:44:49.131Z,14.10
2022-08-30T00:45:49.176Z,14.12
2022-08-30T00:46:49.123Z,14.17
2022-08-30T00:47:49.108Z,14.12
2022-08-30T00:48:49.063Z,14.06
2022-08-30T00:49:49.076Z,14.06
2022-08-30T00:50:49.062Z,14.17
2022-08-30T00:51:49.092Z,14.09
2022-08-30T00:52:49.028Z,13.95
2022-08-30T00:53:49.046Z,13.89
2022-08-30T00:54:49.023Z,13.82
2022-08-30T00:55:49.033Z,13.73
2022-08-30T00:56:49.120Z,13.64
2022-08-30T00:57:49.015Z,13.46
2022-08-30T00:58:48.987Z,13.44
2022-08-30T00:59:48.971Z,13.33
2022-08-30T01:00:48.973Z,13.26
2022-08-30T01:01:49.019Z,13.36
2022-08-30T01:02:48.954Z,13.23
2022-08-30T01:03:48.923Z,13.23
2022-08-30T01:04:48.919Z,13.32
2022-08-30T01:05:48.903Z,13.41
2022-08-30T01:06:49.920Z,13.44
2022-08-30T01:07:48.890Z,13.48
2022-08-30T01:08:48.880Z,13.44
2022-08-30T01:09:48.890Z,13.55
2022-08-30T01:10:48.855Z,13.66
2022-08-30T01:11:48.903Z,13.60
2022-08-30T01:12:48.831Z,13.64
2022-08-30T01:13:48.848Z,13.75
2022-08-30T01:14:48.832Z,13.71
2022-08-30T01:15:48.834Z,13.73
2022-08-30T01:16:48.813Z,13.75
2022-08-30T01:17:48.875Z,13.63
2022-08-30T01:18:48.827Z,13.71
2022-08-30T01:19:48.800Z,13.73
2022-08-30T01:20:48.766Z,13.75
2022-08-30T01:21:48.767Z,13.81
2022-08-30T01:22:48.738Z,13.87
2022-08-30T01:23:48.759Z,13.84
2022-08-30T01:24:48.716Z,13.95
2022-08-30T01:25:48.736Z,13.85
2022-08-30T01:26:48.691Z,13.87
2022-08-30T01:27:48.715Z,13.88
2022-08-30T01:28:48.685Z,13.85
2022-08-30T01:29:48.663Z,13.81
2022-08-30T01:30:48.744Z,13.71
2022-08-30T01:31:48.698Z,13.71
2022-08-30T01:32:48.635Z,13.77
2022-08-30T01:33:48.618Z,13.84
2022-08-30T01:34:48.608Z,13.73
2022-08-30T01:35:48.628Z,13.89
2022-08-30T01:36:48.596Z,13.85
2022-08-30T01:37:48.617Z,13.88
2022-08-30T01:38:48.582Z,13.89
2022-08-30T01:39:48.577Z,13.84
2022-08-30T01:40:48.564Z,13.77
2022-08-30T01:41:48.556Z,13.78
2022-08-30T01:42:48.552Z,13.77
2022-08-30T01:43:48.528Z,13.73
2022-08-30T01:44:48.526Z,13.77
2022-08-30T01:45:48.542Z,13.69
2022-08-30T01:46:48.499Z,13.78
2022-08-30T01:47:48.501Z,13.71
2022-08-30T01:48:53.107Z,13.64
2022-08-30T01:49:49.486Z,13.55
2022-08-30T01:50:48.459Z,13.66
2022-08-30T01:51:48.447Z,13.59
2022-08-30T01:52:48.445Z,13.57
2022-08-30T01:53:48.446Z,13.63
2022-08-30T01:54:48.436Z,13.51
2022-08-30T01:55:48.412Z,13.46
2022-08-30T01:56:48.407Z,13.39
2022-08-30T01:57:48.380Z,13.26
2022-08-30T01:58:48.371Z,13.23
2022-08-30T01:59:48.383Z,13.23
2022-08-30T02:00:48.394Z,13.14
2022-08-30T02:01:48.412Z,13.26
2022-08-30T02:02:48.339Z,13.29
2022-08-30T02:03:48.394Z,13.39
2022-08-30T02:04:48.307Z,13.36
2022-08-30T02:05:48.321Z,13.32
2022-08-30T02:06:48.295Z,13.29
2022-08-30T02:07:48.289Z,13.36
2022-08-30T02:08:48.279Z,13.26
2022-08-30T02:09:48.253Z,13.23
2022-08-30T02:10:48.254Z,13.32
2022-08-30T02:11:48.254Z,13.25
2022-08-30T02:12:48.242Z,13.38
2022-08-30T02:13:48.216Z,13.38
2022-08-30T02:14:48.223Z,13.46
2022-08-30T02:15:48.198Z,13.51
2022-08-30T02:16:48.287Z,13.51
2022-08-30T02:17:48.170Z,13.54
2022-08-30T02:18:48.207Z,13.51
2022-08-30T02:19:48.190Z,13.48
2022-08-30T02:20:48.145Z,13.63
2022-08-30T02:21:48.198Z,13.64
2022-08-30T02:22:49.507Z,13.60
2022-08-30T02:23:48.141Z,13.64
2022-08-30T02:24:48.113Z,13.64
2022-08-30T02:25:48.098Z,13.66
2022-08-30T02:26:48.074Z,13.59
2022-08-30T02:27:49.081Z,13.48
2022-08-30T02:28:50.067Z,13.44
2022-08-30T02:29:48.074Z,13.33
2022-08-30T02:30:48.112Z,13.29
2022-08-30T02:31:48.064Z,13.22
2022-08-30T02:32:48.022Z,13.17
2022-08-30T02:33:48.088Z,13.05
2022-08-30T02:34:48.010Z,13.10
2022-08-30T02:35:48.005Z,13.12
2022-08-30T02:36:48.003Z,13.17
2022-08-30T02:37:47.987Z,13.20
2022-08-30T02:38:47.989Z,13.23
2022-08-30T02:39:47.966Z,13.26
2022-08-30T02:40:47.946Z,13.33
2022-08-30T02:41:47.956Z,13.28
2022-08-30T02:42:47.938Z,13.17
2022-08-30T02:43:47.930Z,13.07
2022-08-30T02:44:47.911Z,13.14
2022-08-30T02:45:47.937Z,13.10
2022-08-30T02:46:47.955Z,13.03
2022-08-30T02:47:48.887Z,13.04
2022-08-30T02:48:47.895Z,12.95
2022-08-30T02:49:47.858Z,13.05
2022-08-30T02:50:47.842Z,12.95
2022-08-30T02:51:47.850Z,13.01
2022-08-30T02:52:48.375Z,13.12
2022-08-30T02:53:47.845Z,13.05
2022-08-30T02:54:47.822Z,13.10
2022-08-30T02:55:47.812Z,13.11
2022-08-30T02:56:47.959Z,13.10
2022-08-30T02:57:47.781Z,13.11
2022-08-30T02:58:47.781Z,12.96
2022-08-30T02:59:47.751Z,12.97
2022-08-30T03:00:47.830Z,13.00
2022-08-30T03:01:47.760Z,12.96
2022-08-30T03:02:47.716Z,13.01
2022-08-30T03:03:47.731Z,13.07
2022-08-30T03:04:47.707Z,13.03
2022-08-30T03:05:47.784Z,13.04
2022-08-30T03:06:47.688Z,12.95
2022-08-30T03:07:47.695Z,12.90
2022-08-30T03:08:47.674Z,12.87
2022-08-30T03:09:47.646Z,12.92
2022-08-30T03:10:47.657Z,12.83
2022-08-30T03:11:47.644Z,12.70
2022-08-30T03:12:47.623Z,12.60
2022-08-30T03:13:47.600Z,12.57
2022-08-30T03:14:47.597Z,12.50
2022-08-30T03:15:47.602Z,12.57
2022-08-30T03:16:47.582Z,12.50
2022-08-30T03:17:47.579Z,12.57
2022-08-30T03:18:47.569Z,12.56
2022-08-30T03:19:47.554Z,12.52
2022-08-30T03:20:54.177Z,12.52
2022-08-30T03:21:48.543Z,12.53
2022-08-30T03:22:47.518Z,12.53
2022-08-30T03:23:47.508Z,12.70
2022-08-30T03:24:47.490Z,12.64
2022-08-30T03:25:47.473Z,12.64
2022-08-30T03:26:48.476Z,12.60
2022-08-30T03:27:47.510Z,12.54
2022-08-30T03:28:47.456Z,12.56
2022-08-30T03:29:47.435Z,12.46
2022-08-30T03:30:47.443Z,12.27
2022-08-30T03:31:52.866Z,12.21
2022-08-30T03:32:48.441Z,12.21
2022-08-30T03:33:47.391Z,12.23
2022-08-30T03:34:47.389Z,12.27
2022-08-30T03:35:47.386Z,12.20
2022-08-30T03:36:47.366Z,12.24
2022-08-30T03:37:47.384Z,12.32
2022-08-30T03:38:47.370Z,12.42
2022-08-30T03:39:47.327Z,12.45
2022-08-30T03:40:47.342Z,12.29
2022-08-30T03:41:47.338Z,12.39
2022-08-30T03:42:47.306Z,12.28
2022-08-30T03:43:47.297Z,12.34
2022-08-30T03:44:47.282Z,12.19
2022-08-30T03:45:47.318Z,12.31
2022-08-30T03:46:47.274Z,12.27
2022-08-30T03:47:47.260Z,12.27
2022-08-30T03:48:47.261Z,12.19
2022-08-30T03:49:47.244Z,12.17
2022-08-30T03:50:47.218Z,12.19
2022-08-30T03:51:47.260Z,12.17
2022-08-30T03:52:47.213Z,12.20
2022-08-30T03:53:47.207Z,12.24
2022-08-30T03:54:47.185Z,12.29
2022-08-30T03:55:47.182Z,12.32
2022-08-30T03:56:47.166Z,12.27
2022-08-30T03:57:47.171Z,12.37
2022-08-30T03:58:47.156Z,12.32
2022-08-30T03:59:47.153Z,12.29
2022-08-30T04:00:47.147Z,12.27
2022-08-30T04:01:47.137Z,12.34
2022-08-30T04:02:47.133Z,12.35
2022-08-30T04:03:47.100Z,12.29
2022-08-30T04:04:47.106Z,12.31
2022-08-30T04:05:47.071Z,12.29
2022-08-30T04:06:47.070Z,12.27
2022-08-30T04:07:47.051Z,12.31
2022-08-30T04:08:47.091Z,12.20
2022-08-30T04:09:47.081Z,12.29
2022-08-30T04:10:47.031Z,12.29
2022-08-30T04:11:47.060Z,12.28
2022-08-30T04:12:49.724Z,12.39
2022-08-30T04:13:48.138Z,12.32
2022-08-30T04:14:46.983Z,12.38
2022-08-30T04:15:46.980Z,12.31
2022-08-30T04:16:47.096Z,12.37
2022-08-30T04:17:46.945Z,12.46
2022-08-30T04:18:46.947Z,12.47
2022-08-30T04:19:46.956Z,12.39
2022-08-30T04:20:46.927Z,12.42
2022-08-30T04:21:47.918Z,12.37
2022-08-30T04:22:46.957Z,12.38
2022-08-30T04:23:46.925Z,12.29
2022-08-30T04:24:46.878Z,12.42
2022-08-30T04:25:46.897Z,12.35
2022-08-30T04:26:46.873Z,12.41
2022-08-30T04:27:46.847Z,12.39
2022-08-30T04:28:46.841Z,12.27
2022-08-30T04:29:46.841Z,12.47
2022-08-30T04:30:46.851Z,12.49
2022-08-30T04:31:46.908Z,12.46
2022-08-30T04:32:46.809Z,12.62
2022-08-30T04:33:46.792Z,12.54
2022-08-30T04:34:46.809Z,12.53
2022-08-30T04:35:46.804Z,12.71
2022-08-30T04:36:48.387Z,12.68
2022-08-30T04:37:46.770Z,12.67
2022-08-30T04:38:46.765Z,12.74
2022-08-30T04:39:46.779Z,12.83
2022-08-30T04:40:46.773Z,12.78
2022-08-30T04:41:46.711Z,12.72
2022-08-30T04:42:46.764Z,12.83
2022-08-30T04:43:46.725Z,12.77
2022-08-30T04:44:46.701Z,12.67
2022-08-30T04:45:46.736Z,12.64
2022-08-30T04:46:46.686Z,12.65
2022-08-30T04:47:46.678Z,12.83
2022-08-30T04:48:46.681Z,12.68
2022-08-30T04:49:46.657Z,12.74
2022-08-30T04:50:46.659Z,12.85
2022-08-30T04:51:46.619Z,12.86
2022-08-30T04:52:46.624Z,12.87
2022-08-30T04:53:46.679Z,12.71
2022-08-30T04:54:46.602Z,12.71
2022-08-30T04:55:46.581Z,12.77
2022-08-30T04:56:46.571Z,12.72
2022-08-30T04:57:46.565Z,12.67
2022-08-30T04:58:46.573Z,12.67
2022-08-30T04:59:46.532Z,12.60
2022-08-30T05:00:46.589Z,12.72
2022-08-30T05:01:46.674Z,12.87
2022-08-30T05:02:46.588Z,13.20
2022-08-30T05:03:46.507Z,13.69
2022-08-30T05:04:46.557Z,14.14
2022-08-30T05:05:46.490Z,14.65
2022-08-30T05:06:46.468Z,15.02
2022-08-30T05:07:46.459Z,15.31
2022-08-30T05:08:46.863Z,15.74
2022-08-30T05:09:46.471Z,15.92
2022-08-30T05:10:46.442Z,16.33
2022-08-30T05:11:46.422Z,16.66
2022-08-30T05:12:46.405Z,16.93
2022-08-30T05:13:46.415Z,17.28
2022-08-30T05:14:46.411Z,17.37
2022-08-30T05:15:46.381Z,17.48
2022-08-30T05:16:46.490Z,17.64
2022-08-30T05:17:46.371Z,17.93
2022-08-30T05:18:46.362Z,18.07
2022-08-30T05:19:46.346Z,18.02
2022-08-30T05:20:46.328Z,18.25
2022-08-30T05:21:46.315Z,17.78
2022-08-30T05:22:46.331Z,17.55
2022-08-30T05:23:46.296Z,16.91
2022-08-30T05:24:46.305Z,16.17
2022-08-30T05:25:46.273Z,15.69
2022-08-30T05:27:46.279Z,14.89
2022-08-30T05:28:46.243Z,14.78
2022-08-30T05:29:46.241Z,14.81
2022-08-30T05:30:46.230Z,14.83
2022-08-30T05:31:46.281Z,15.25
2022-08-30T05:32:46.212Z,15.57
2022-08-30T05:33:46.212Z,16.08
2022-08-30T05:34:46.215Z,16.64
2022-08-30T05:35:46.181Z,17.43
2022-08-30T05:36:46.164Z,17.86
2022-08-30T05:37:46.164Z,18.23
2022-08-30T05:38:46.141Z,18.67
2022-08-30T05:39:51.808Z,18.87
2022-08-30T05:40:46.279Z,19.02
2022-08-30T05:41:46.118Z,18.50
2022-08-30T05:42:46.110Z,18.08
2022-08-30T05:43:46.103Z,17.99
2022-08-30T05:44:46.092Z,17.26
2022-08-30T05:45:46.096Z,17.04
2022-08-30T05:46:46.069Z,16.58
2022-08-30T05:47:46.077Z,16.17
2022-08-30T05:48:46.069Z,16.11
2022-08-30T05:49:46.060Z,16.42
2022-08-30T05:50:46.032Z,16.93
2022-08-30T05:51:46.048Z,16.63
2022-08-30T05:52:46.004Z,16.24
2022-08-30T05:53:46.009Z,16.11
2022-08-30T05:54:45.991Z,16.04
2022-08-30T05:55:45.988Z,15.76
2022-08-30T05:56:45.986Z,15.65
2022-08-30T05:57:45.963Z,15.54
2022-08-30T05:58:45.960Z,15.43
2022-08-30T05:59:45.963Z,15.38
2022-08-30T06:00:45.932Z,15.25
2022-08-30T06:01:46.011Z,15.10
2022-08-30T06:02:45.969Z,15.13
2022-08-30T06:03:45.911Z,14.94
2022-08-30T06:04:45.897Z,14.88
2022-08-30T06:06:45.914Z,14.86
2022-08-30T06:07:45.861Z,14.73
2022-08-30T06:08:45.835Z,14.70
2022-08-30T06:09:45.852Z,14.52
2022-08-30T06:10:45.848Z,14.50
2022-08-30T06:11:45.827Z,14.52
2022-08-30T06:12:45.802Z,14.61
2022-08-30T06:13:45.812Z,14.64
2022-08-30T06:14:45.810Z,14.68
2022-08-30T06:15:45.892Z,14.61
2022-08-30T06:16:45.976Z,14.83
2022-08-30T06:17:45.768Z,15.83
2022-08-30T06:18:45.729Z,16.57
2022-08-30T06:19:45.726Z,17.38
2022-08-30T06:20:46.713Z,17.95
2022-08-30T06:21:45.734Z,18.08
2022-08-30T06:22:45.704Z,18.55
2022-08-30T06:23:45.693Z,19.14
2022-08-30T06:24:58.759Z,19.55
2022-08-30T06:25:47.671Z,20.11
2022-08-30T06:26:45.655Z,20.77
2022-08-30T06:27:45.669Z,21.10
2022-08-30T06:28:45.631Z,21.42
2022-08-30T06:29:45.635Z,21.50
2022-08-30T06:30:45.619Z,21.40
2022-08-30T06:31:45.642Z,21.74
2022-08-30T06:32:45.613Z,22.09
2022-08-30T06:33:45.586Z,22.62
2022-08-30T06:34:45.578Z,23.15
2022-08-30T06:35:58.091Z,23.60
2022-08-30T06:36:46.561Z,23.63
2022-08-30T06:37:45.568Z,23.85
2022-08-30T06:38:45.535Z,24.08
2022-08-30T06:39:45.532Z,24.21
2022-08-30T06:40:45.598Z,24.18
2022-08-30T06:41:45.513Z,24.12
2022-08-30T06:42:45.516Z,23.46
2022-08-30T06:43:48.891Z,22.37
2022-08-30T06:44:46.502Z,21.10
2022-08-30T06:45:45.486Z,20.24
2022-08-30T06:46:45.527Z,19.63
2022-08-30T06:47:45.461Z,19.23
2022-08-30T06:48:48.174Z,18.81
2022-08-30T06:49:45.445Z,18.57
2022-08-30T06:50:45.451Z,18.29
2022-08-30T06:51:45.411Z,17.97
2022-08-30T06:52:45.403Z,17.93
2022-08-30T06:53:45.386Z,17.64
2022-08-30T06:54:46.386Z,17.59
2022-08-30T06:55:45.387Z,17.49
2022-08-30T06:56:58.504Z,17.55
2022-08-30T06:57:47.365Z,17.71
2022-08-30T06:58:45.373Z,17.72
2022-08-30T06:59:45.361Z,17.63
2022-08-30T07:00:45.323Z,17.54
2022-08-30T07:01:45.352Z,17.58
2022-08-30T07:02:45.377Z,17.63
2022-08-30T07:03:45.325Z,17.79
2022-08-30T07:04:45.289Z,17.96
2022-08-30T07:05:45.278Z,18.12
2022-08-30T07:06:45.269Z,18.07
2022-08-30T07:07:45.269Z,18.30
2022-08-30T07:08:45.253Z,18.45
2022-08-30T07:09:45.263Z,18.63
2022-08-30T07:10:45.228Z,18.57
2022-08-30T07:11:45.212Z,19.32
2022-08-30T07:12:45.196Z,19.76
2022-08-30T07:13:45.207Z,20.32
2022-08-30T07:14:45.208Z,20.23
2022-08-30T07:15:45.200Z,20.52
2022-08-30T07:16:45.165Z,20.98
2022-08-30T07:17:45.172Z,20.72
2022-08-30T07:18:45.155Z,21.56
2022-08-30T07:19:45.139Z,22.25
2022-08-30T07:20:45.131Z,22.90
2022-08-30T07:21:45.138Z,23.39
2022-08-30T07:22:45.121Z,22.90
2022-08-30T07:23:45.108Z,22.39
2022-08-30T07:24:45.084Z,22.43
2022-08-30T07:25:45.070Z,22.17
2022-08-30T07:26:45.086Z,21.75
2022-08-30T07:27:45.060Z,21.59
2022-08-30T07:28:45.233Z,22.45
2022-08-30T07:29:45.060Z,22.90
2022-08-30T07:30:45.025Z,23.02
2022-08-30T07:31:45.012Z,22.91
2022-08-30T07:32:45.012Z,23.40
2022-08-30T07:33:45.019Z,23.48
2022-08-30T07:34:44.990Z,23.61
2022-08-30T07:35:44.984Z,24.20
2022-08-30T07:36:44.970Z,24.71
2022-08-30T07:37:44.967Z,25.36
2022-08-30T07:38:44.943Z,25.65
2022-08-30T07:39:47.736Z,25.80
2022-08-30T07:40:45.973Z,25.76
2022-08-30T07:41:44.921Z,26.09
2022-08-30T07:42:44.907Z,26.15
2022-08-30T07:43:44.894Z,26.13
2022-08-30T07:44:44.884Z,26.18
2022-08-30T07:45:44.901Z,25.73
2022-08-30T07:46:44.966Z,25.06
2022-08-30T07:47:44.855Z,24.52
2022-08-30T07:48:44.852Z,24.35
2022-08-30T07:49:44.831Z,24.10
2022-08-30T07:50:44.827Z,23.98
2022-08-30T07:51:44.832Z,23.95
2022-08-30T07:52:44.828Z,23.51
2022-08-30T07:53:44.796Z,23.28
2022-08-30T07:54:44.803Z,23.07
2022-08-30T07:55:44.782Z,22.98
2022-08-30T07:56:44.784Z,22.91
2022-08-30T07:57:44.783Z,22.79
2022-08-30T07:58:44.750Z,22.70
2022-08-30T07:59:44.747Z,22.54
2022-08-30T08:00:44.726Z,22.65
2022-08-30T08:01:44.797Z,22.62
2022-08-30T08:02:44.809Z,23.54
2022-08-30T08:03:44.711Z,24.12
2022-08-30T08:04:44.705Z,24.78
2022-08-30T08:05:44.687Z,25.27
2022-08-30T08:06:44.678Z,25.69
2022-08-30T08:07:44.666Z,26.06
2022-08-30T08:08:44.672Z,26.12
2022-08-30T08:09:44.647Z,26.45
2022-08-30T08:10:44.628Z,26.58
2022-08-30T08:11:44.643Z,26.33
2022-08-30T08:12:44.611Z,26.20
2022-08-30T08:14:00.620Z,26.20
2022-08-30T08:14:45.604Z,26.36
2022-08-30T08:15:44.633Z,26.70
2022-08-30T08:16:44.581Z,26.84
2022-08-30T08:17:44.574Z,26.89
2022-08-30T08:18:44.570Z,27.03
2022-08-30T08:19:44.563Z,26.97
2022-08-30T08:20:44.559Z,27.12
2022-08-30T08:21:44.541Z,27.19
2022-08-30T08:22:44.529Z,27.65
2022-08-30T08:23:44.546Z,27.99
2022-08-30T08:24:44.522Z,27.85
2022-08-30T08:25:44.510Z,27.78
2022-08-30T08:26:45.426Z,27.96
2022-08-30T08:27:44.471Z,27.72
2022-08-30T08:28:44.471Z,27.62
2022-08-30T08:29:44.504Z,27.50
2022-08-30T08:30:48.129Z,27.65
2022-08-30T08:31:45.471Z,27.29
2022-08-30T08:32:44.428Z,27.55
2022-08-30T08:33:44.418Z,27.70
2022-08-30T08:34:44.426Z,27.78
2022-08-30T08:35:44.529Z,27.93
2022-08-30T08:36:44.409Z,27.87
2022-08-30T08:37:44.395Z,27.88
2022-08-30T08:38:44.389Z,27.96
2022-08-30T08:39:44.375Z,28.14
2022-08-30T08:40:44.390Z,28.33
2022-08-30T08:41:44.402Z,28.37
2022-08-30T08:42:44.342Z,28.24
2022-08-30T08:43:44.325Z,28.46
2022-08-30T08:44:44.387Z,28.56
2022-08-30T08:45:44.318Z,28.55
2022-08-30T08:46:45.496Z,28.00
2022-08-30T08:47:44.319Z,28.07
2022-08-30T08:48:58.980Z,27.63
2022-08-30T08:49:45.286Z,27.32
2022-08-30T08:50:44.275Z,27.13
2022-08-30T08:51:44.285Z,27.10
2022-08-30T08:52:44.246Z,27.06
2022-08-30T08:53:46.583Z,27.36
2022-08-30T08:54:45.237Z,27.44
2022-08-30T08:55:44.275Z,27.09
2022-08-30T08:56:44.226Z,27.25
2022-08-30T08:57:44.240Z,26.72
2022-08-30T08:58:44.206Z,26.58
2022-08-30T08:59:44.195Z,26.48
2022-08-30T09:00:44.173Z,26.23
2022-08-30T09:01:44.211Z,26.28
2022-08-30T09:02:44.179Z,26.17
2022-08-30T09:03:44.147Z,25.75
2022-08-30T09:04:44.190Z,25.65
2022-08-30T09:05:44.137Z,25.39
2022-08-30T09:06:45.388Z,25.40
2022-08-30T09:07:44.140Z,25.51
2022-08-30T09:08:44.101Z,25.60
2022-08-30T09:09:44.090Z,25.46
2022-08-30T09:10:51.378Z,25.58
2022-08-30T09:11:46.075Z,25.45
2022-08-30T09:12:44.073Z,25.42
2022-08-30T09:13:44.081Z,25.25
2022-08-30T09:14:45.996Z,25.28
2022-08-30T09:15:44.077Z,25.33
2022-08-30T09:16:44.019Z,25.05
2022-08-30T09:17:44.015Z,25.20
2022-08-30T09:18:45.466Z,25.13
2022-08-30T09:19:44.061Z,25.00
2022-08-30T09:20:43.995Z,25.06
2022-08-30T09:21:43.993Z,24.67
2022-08-30T09:22:46.537Z,24.87
2022-08-30T09:23:43.978Z,24.91
2022-08-30T09:24:43.950Z,24.90
2022-08-30T09:25:43.941Z,25.47
2022-08-30T09:26:43.923Z,26.02
2022-08-30T09:27:43.927Z,25.77
2022-08-30T09:28:43.937Z,25.90
2022-08-30T09:29:43.902Z,25.98
2022-08-30T09:30:43.930Z,26.15
2022-08-30T09:31:43.890Z,26.12
2022-08-30T09:32:43.875Z,26.39
2022-08-30T09:33:43.863Z,26.23
2022-08-30T09:34:43.878Z,26.55
2022-08-30T09:35:43.837Z,26.35
2022-08-30T09:36:43.853Z,26.15
2022-08-30T09:37:43.841Z,25.54
2022-08-30T09:38:43.818Z,25.38
2022-08-30T09:39:43.824Z,25.30
2022-08-30T09:40:43.850Z,25.62
2022-08-30T09:41:43.795Z,25.98
2022-08-30T09:42:43.771Z,26.23
2022-08-30T09:43:43.791Z,26.44
2022-08-30T09:44:43.756Z,26.50
2022-08-30T09:45:43.806Z,26.82
2022-08-30T09:46:43.730Z,27.13
2022-08-30T09:47:43.737Z,27.18
2022-08-30T09:48:44.726Z,27.32
2022-08-30T09:49:43.767Z,27.39
2022-08-30T09:50:43.698Z,27.39
2022-08-30T09:51:43.694Z,27.32
2022-08-30T09:52:43.676Z,27.40
2022-08-30T09:53:55.699Z,27.47
2022-08-30T09:54:44.679Z,27.27
2022-08-30T09:55:43.663Z,27.27
2022-08-30T09:56:43.647Z,27.34
2022-08-30T09:57:43.641Z,27.28
2022-08-30T09:58:43.646Z,27.24
2022-08-30T09:59:43.617Z,27.18
2022-08-30T10:00:43.613Z,27.31
2022-08-30T10:01:43.644Z,27.59
2022-08-30T10:02:43.625Z,27.62
2022-08-30T10:03:43.584Z,27.78
2022-08-30T10:04:43.566Z,27.81
2022-08-30T10:05:43.557Z,27.78
2022-08-30T10:06:43.563Z,27.75
2022-08-30T10:07:43.567Z,27.78
2022-08-30T10:08:43.789Z,27.82
2022-08-30T10:09:43.531Z,27.88
2022-08-30T10:10:45.890Z,27.84
2022-08-30T10:11:44.535Z,27.82
2022-08-30T10:12:43.504Z,27.74
2022-08-30T10:13:43.521Z,27.49
2022-08-30T10:14:43.506Z,27.22
2022-08-30T10:15:43.467Z,27.06
2022-08-30T10:16:43.561Z,27.07
2022-08-30T10:17:43.513Z,27.00
2022-08-30T10:18:43.523Z,26.97
2022-08-30T10:19:43.465Z,26.95
2022-08-30T10:20:43.453Z,26.85
2022-08-30T10:21:43.423Z,26.62
2022-08-30T10:22:43.393Z,26.62
2022-08-30T10:23:43.394Z,26.73
2022-08-30T10:24:43.933Z,26.63
2022-08-30T10:25:43.406Z,26.55
2022-08-30T10:26:43.378Z,26.57
2022-08-30T10:27:43.357Z,26.62
2022-08-30T10:28:43.350Z,26.44
2022-08-30T10:29:43.497Z,26.30
2022-08-30T10:30:43.326Z,26.37
2022-08-30T10:31:43.327Z,26.51
2022-08-30T10:32:43.304Z,26.37
2022-08-30T10:33:43.309Z,26.36
2022-08-30T10:34:43.295Z,26.70
2022-08-30T10:35:43.277Z,26.84
2022-08-30T10:36:43.283Z,26.88
2022-08-30T10:37:43.261Z,27.09
2022-08-30T10:38:43.258Z,27.18
2022-08-30T10:39:43.243Z,27.21
2022-08-30T10:40:43.288Z,27.39
2022-08-30T10:41:43.239Z,27.10
2022-08-30T10:42:43.209Z,27.09
2022-08-30T10:43:43.194Z,27.19
2022-08-30T10:44:43.183Z,27.02
2022-08-30T10:45:43.194Z,26.81
2022-08-30T10:46:43.163Z,26.58
2022-08-30T10:47:43.178Z,26.33
2022-08-30T10:48:44.509Z,26.20
2022-08-30T10:49:43.148Z,26.25
2022-08-30T10:50:43.123Z,26.37
2022-08-30T10:51:43.120Z,26.30
2022-08-30T10:52:43.109Z,26.23
2022-08-30T10:53:43.114Z,26.15
2022-08-30T10:54:43.107Z,26.10
2022-08-30T10:55:45.765Z,26.17
2022-08-30T10:56:44.084Z,26.09
2022-08-30T10:58:44.132Z,26.18
2022-08-30T10:59:43.063Z,26.30
2022-08-30T11:00:43.085Z,26.37
2022-08-30T11:01:46.613Z,26.62
2022-08-30T11:02:43.016Z,26.62
2022-08-30T11:03:42.999Z,26.65
2022-08-30T11:04:45.514Z,26.91
2022-08-30T11:05:42.998Z,26.97
2022-08-30T11:06:42.974Z,26.72
2022-08-30T11:07:42.966Z,26.52
2022-08-30T11:08:42.968Z,26.43
2022-08-30T11:09:42.952Z,26.21
2022-08-30T11:10:42.962Z,26.15
2022-08-30T11:11:43.925Z,26.25
2022-08-30T11:12:42.922Z,26.40
2022-08-30T11:13:42.907Z,26.48
2022-08-30T11:14:43.267Z,26.35
2022-08-30T11:15:43.902Z,26.28
2022-08-30T11:16:43.302Z,26.28
2022-08-30T11:17:42.905Z,26.23
2022-08-30T11:18:43.356Z,26.33
2022-08-30T11:19:42.855Z,26.39
2022-08-30T11:20:42.848Z,26.66
2022-08-30T11:21:42.844Z,26.77
2022-08-30T11:22:42.853Z,26.87
2022-08-30T11:23:42.812Z,26.65
2022-08-30T11:24:42.803Z,26.69
2022-08-30T11:25:42.790Z,26.72
2022-08-30T11:26:42.781Z,26.77
2022-08-30T11:27:42.803Z,26.60
2022-08-30T11:28:42.763Z,26.58
2022-08-30T11:29:42.753Z,26.40
2022-08-30T11:30:42.757Z,26.43
2022-08-30T11:31:42.731Z,26.37
2022-08-30T11:32:42.715Z,26.40
2022-08-30T11:33:42.722Z,26.36
2022-08-30T11:34:42.710Z,26.18
2022-08-30T11:35:47.349Z,26.37
2022-08-30T11:36:46.203Z,26.60
2022-08-30T11:37:42.661Z,26.67
2022-08-30T11:38:42.669Z,26.84
2022-08-30T11:39:42.655Z,27.02
2022-08-30T11:40:42.657Z,27.02
2022-08-30T11:41:46.082Z,26.88
2022-08-30T11:42:44.806Z,26.70
2022-08-30T11:43:42.616Z,26.73
2022-08-30T11:44:42.609Z,26.73
2022-08-30T11:45:42.662Z,26.80
2022-08-30T11:46:42.579Z,26.99
2022-08-30T11:47:42.565Z,27.03
2022-08-30T11:48:51.363Z,27.00
2022-08-30T11:49:42.571Z,26.94
2022-08-30T11:50:46.445Z,27.03
2022-08-30T11:51:43.681Z,27.17
2022-08-30T11:52:42.529Z,27.36
2022-08-30T11:53:42.519Z,27.34
2022-08-30T11:54:42.509Z,27.34
2022-08-30T11:55:42.501Z,27.32
2022-08-30T11:56:42.503Z,27.13
2022-08-30T11:57:42.487Z,27.10
2022-08-30T11:58:43.946Z,26.99
2022-08-30T11:59:42.487Z,27.12
2022-08-30T12:00:42.455Z,27.39
2022-08-30T12:01:50.262Z,27.49
2022-08-30T12:02:42.520Z,27.60
2022-08-30T12:03:42.523Z,27.82
2022-08-30T12:04:42.423Z,27.93
2022-08-30T12:05:42.394Z,28.06
2022-08-30T12:06:43.175Z,28.15
2022-08-30T12:07:42.374Z,27.96
2022-08-30T12:08:42.484Z,27.84
2022-08-30T12:09:42.382Z,27.81
2022-08-30T12:10:42.346Z,27.77
2022-08-30T12:11:42.333Z,27.57
2022-08-30T12:12:42.338Z,27.41
2022-08-30T12:13:42.317Z,27.47
2022-08-30T12:14:42.343Z,27.59
2022-08-30T12:15:42.292Z,27.82
2022-08-30T12:16:42.286Z,27.81
2022-08-30T12:17:42.305Z,27.60
2022-08-30T12:18:42.270Z,27.39
2022-08-30T12:19:44.650Z,27.17
2022-08-30T12:20:43.246Z,27.07
2022-08-30T12:21:44.703Z,27.14
2022-08-30T12:22:42.264Z,27.17
2022-08-30T12:23:44.418Z,27.09
2022-08-30T12:24:42.206Z,27.03
2022-08-30T12:25:42.205Z,27.09
2022-08-30T12:26:42.180Z,27.13
2022-08-30T12:27:42.189Z,27.04
2022-08-30T12:28:42.280Z,27.28
2022-08-30T12:29:42.165Z,27.39
2022-08-30T12:30:42.166Z,27.34
2022-08-30T12:31:42.179Z,27.31
2022-08-30T12:32:42.137Z,27.49
2022-08-30T12:33:42.127Z,27.69
2022-08-30T12:34:42.112Z,27.90
2022-08-30T12:35:42.137Z,27.99
2022-08-30T12:36:42.093Z,28.02
2022-08-30T12:37:42.266Z,28.02
2022-08-30T12:38:42.082Z,28.03
2022-08-30T12:39:42.071Z,27.85
2022-08-30T12:40:42.097Z,27.88
2022-08-30T12:41:43.500Z,27.70
2022-08-30T12:42:42.064Z,27.62
2022-08-30T12:43:42.035Z,27.40
2022-08-30T12:44:42.043Z,27.13
2022-08-30T12:45:42.051Z,26.99
2022-08-30T12:46:43.005Z,26.94
2022-08-30T12:47:41.986Z,27.00
2022-08-30T12:48:41.988Z,26.99
2022-08-30T12:49:41.984Z,27.04
2022-08-30T12:50:41.961Z,26.91
2022-08-30T12:51:41.944Z,27.25
2022-08-30T12:52:41.964Z,27.36
2022-08-30T12:53:42.003Z,27.43
2022-08-30T12:54:42.378Z,27.39
2022-08-30T12:55:41.912Z,27.46